sensor_id;sensor_type;location;lat;lon;timestamp;P1;durP1;ratioP1;P2;durP2;ratioP2
21424;SDS011;10873;51.132;16.848;2023-05-21T00:01:56;18.48;;;15.30;;
21424;SDS011;10873;51.132;16.848;2023-05-21T00:04:24;18.60;;;15.52;;
21424;SDS011;10873;51.132;16.848;2023-05-21T00:06:50;17.52;;;15.65;;
21424;SDS011;10873;51.132;16.848;2023-05-21T00:09:16;18.13;;;16.20;;
21424;SDS011;10873;51.132;16.848;2023-05-21T00:11:42;18.58;;;15.73;;
21424;SDS011;10873;51.132;16.848;2023-05-21T00:14:10;17.45;;;15.40;;
21424;SDS011;10873;51.132;16.848;2023-05-21T00:16:37;19.00;;;14.75;;
21424;SDS011;10873;51.132;16.848;2023-05-21T00:19:04;16.63;;;14.82;;
21424;SDS011;10873;51.132;16.848;2023-05-21T00:21:30;17.55;;;15.45;;
21424;SDS011;10873;51.132;16.848;2023-05-21T00:23:56;17.50;;;15.65;;
21424;SDS011;10873;51.132;16.848;2023-05-21T00:26:23;17.10;;;15.23;;
21424;SDS011;10873;51.132;16.848;2023-05-21T00:28:49;17.35;;;14.65;;
21424;SDS011;10873;51.132;16.848;2023-05-21T00:31:15;18.52;;;15.55;;
21424;SDS011;10873;51.132;16.848;2023-05-21T00:33:41;18.15;;;15.00;;
21424;SDS011;10873;51.132;16.848;2023-05-21T00:36:08;16.83;;;15.00;;
21424;SDS011;10873;51.132;16.848;2023-05-21T00:38:38;16.20;;;14.18;;
21424;SDS011;10873;51.132;16.848;2023-05-21T00:41:04;19.25;;;14.63;;
21424;SDS011;10873;51.132;16.848;2023-05-21T00:43:32;14.82;;;13.23;;
21424;SDS011;10873;51.132;16.848;2023-05-21T00:45:58;16.90;;;14.48;;
21424;SDS011;10873;51.132;16.848;2023-05-21T00:48:24;16.80;;;13.80;;
21424;SDS011;10873;51.132;16.848;2023-05-21T00:50:50;19.42;;;13.68;;
21424;SDS011;10873;51.132;16.848;2023-05-21T00:53:18;15.60;;;13.77;;
21424;SDS011;10873;51.132;16.848;2023-05-21T00:55:44;16.35;;;14.05;;
21424;SDS011;10873;51.132;16.848;2023-05-21T00:58:10;14.07;;;12.63;;
21424;SDS011;10873;51.132;16.848;2023-05-21T01:00:37;16.67;;;13.63;;
21424;SDS011;10873;51.132;16.848;2023-05-21T01:03:04;16.92;;;13.73;;
21424;SDS011;10873;51.132;16.848;2023-05-21T01:05:31;14.85;;;13.20;;
21424;SDS011;10873;51.132;16.848;2023-05-21T01:07:57;16.73;;;13.90;;
21424;SDS011;10873;51.132;16.848;2023-05-21T01:10:25;16.98;;;13.52;;
21424;SDS011;10873;51.132;16.848;2023-05-21T01:12:51;14.95;;;12.70;;
21424;SDS011;10873;51.132;16.848;2023-05-21T01:15:19;15.18;;;12.75;;
21424;SDS011;10873;51.132;16.848;2023-05-21T01:17:45;16.23;;;12.60;;
21424;SDS011;10873;51.132;16.848;2023-05-21T01:20:13;16.77;;;13.35;;
21424;SDS011;10873;51.132;16.848;2023-05-21T01:22:47;14.23;;;12.35;;
21424;SDS011;10873;51.132;16.848;2023-05-21T01:25:16;14.35;;;12.27;;
21424;SDS011;10873;51.132;16.848;2023-05-21T01:27:42;16.58;;;12.55;;
21424;SDS011;10873;51.132;16.848;2023-05-21T01:30:08;14.32;;;12.25;;
21424;SDS011;10873;51.132;16.848;2023-05-21T01:32:37;14.52;;;12.23;;
21424;SDS011;10873;51.132;16.848;2023-05-21T01:35:10;13.25;;;11.93;;
21424;SDS011;10873;51.132;16.848;2023-05-21T01:37:40;17.73;;;12.70;;
21424;SDS011;10873;51.132;16.848;2023-05-21T01:40:14;14.35;;;12.00;;
21424;SDS011;10873;51.132;16.848;2023-05-21T01:42:47;13.38;;;11.85;;
21424;SDS011;10873;51.132;16.848;2023-05-21T01:45:16;15.18;;;12.18;;
21424;SDS011;10873;51.132;16.848;2023-05-21T01:47:44;13.13;;;11.48;;
21424;SDS011;10873;51.132;16.848;2023-05-21T01:50:13;12.85;;;11.30;;
21424;SDS011;10873;51.132;16.848;2023-05-21T01:52:46;12.85;;;11.27;;
21424;SDS011;10873;51.132;16.848;2023-05-21T01:55:15;17.20;;;11.38;;
21424;SDS011;10873;51.132;16.848;2023-05-21T01:57:41;12.82;;;11.50;;
21424;SDS011;10873;51.132;16.848;2023-05-21T02:00:13;12.52;;;10.85;;
21424;SDS011;10873;51.132;16.848;2023-05-21T02:02:39;13.55;;;11.55;;
21424;SDS011;10873;51.132;16.848;2023-05-21T02:05:06;12.10;;;10.70;;
21424;SDS011;10873;51.132;16.848;2023-05-21T02:07:33;12.90;;;11.50;;
21424;SDS011;10873;51.132;16.848;2023-05-21T02:10:02;13.07;;;11.18;;
21424;SDS011;10873;51.132;16.848;2023-05-21T02:12:29;11.95;;;10.50;;
21424;SDS011;10873;51.132;16.848;2023-05-21T02:14:56;14.88;;;11.63;;
21424;SDS011;10873;51.132;16.848;2023-05-21T02:17:22;12.05;;;10.82;;
21424;SDS011;10873;51.132;16.848;2023-05-21T02:19:51;11.85;;;10.38;;
21424;SDS011;10873;51.132;16.848;2023-05-21T02:22:17;13.65;;;10.07;;
21424;SDS011;10873;51.132;16.848;2023-05-21T02:24:43;13.57;;;10.88;;
21424;SDS011;10873;51.132;16.848;2023-05-21T02:27:09;11.82;;;10.52;;
21424;SDS011;10873;51.132;16.848;2023-05-21T02:29:39;14.70;;;10.75;;
21424;SDS011;10873;51.132;16.848;2023-05-21T02:32:05;11.50;;;10.30;;
21424;SDS011;10873;51.132;16.848;2023-05-21T02:34:32;14.65;;;10.18;;
21424;SDS011;10873;51.132;16.848;2023-05-21T02:37:00;12.10;;;10.18;;
21424;SDS011;10873;51.132;16.848;2023-05-21T02:39:26;14.98;;;11.25;;
21424;SDS011;10873;51.132;16.848;2023-05-21T02:41:52;11.60;;;9.88;;
21424;SDS011;10873;51.132;16.848;2023-05-21T02:44:18;13.40;;;10.23;;
21424;SDS011;10873;51.132;16.848;2023-05-21T02:46:46;11.60;;;10.18;;
21424;SDS011;10873;51.132;16.848;2023-05-21T02:49:12;12.35;;;9.63;;
21424;SDS011;10873;51.132;16.848;2023-05-21T02:51:38;11.75;;;9.93;;
21424;SDS011;10873;51.132;16.848;2023-05-21T02:54:04;11.27;;;10.07;;
21424;SDS011;10873;51.132;16.848;2023-05-21T02:56:30;11.10;;;8.75;;
21424;SDS011;10873;51.132;16.848;2023-05-21T02:58:56;11.38;;;9.60;;
21424;SDS011;10873;51.132;16.848;2023-05-21T03:01:22;10.93;;;9.43;;
21424;SDS011;10873;51.132;16.848;2023-05-21T03:03:50;10.40;;;9.07;;
21424;SDS011;10873;51.132;16.848;2023-05-21T03:06:15;10.07;;;8.98;;
21424;SDS011;10873;51.132;16.848;2023-05-21T03:08:41;11.43;;;9.40;;
21424;SDS011;10873;51.132;16.848;2023-05-21T03:11:07;10.23;;;8.93;;
21424;SDS011;10873;51.132;16.848;2023-05-21T03:13:34;11.15;;;9.40;;
21424;SDS011;10873;51.132;16.848;2023-05-21T03:16:00;10.10;;;8.95;;
21424;SDS011;10873;51.132;16.848;2023-05-21T03:18:26;10.93;;;9.38;;
21424;SDS011;10873;51.132;16.848;2023-05-21T03:20:54;12.65;;;9.07;;
21424;SDS011;10873;51.132;16.848;2023-05-21T03:23:23;10.40;;;9.27;;
21424;SDS011;10873;51.132;16.848;2023-05-21T03:25:49;10.98;;;9.43;;
21424;SDS011;10873;51.132;16.848;2023-05-21T03:28:15;10.73;;;9.23;;
21424;SDS011;10873;51.132;16.848;2023-05-21T03:30:42;9.98;;;8.98;;
21424;SDS011;10873;51.132;16.848;2023-05-21T03:33:11;10.60;;;8.75;;
21424;SDS011;10873;51.132;16.848;2023-05-21T03:35:38;9.73;;;8.57;;
21424;SDS011;10873;51.132;16.848;2023-05-21T03:38:06;11.98;;;9.07;;
21424;SDS011;10873;51.132;16.848;2023-05-21T03:40:32;11.35;;;9.18;;
21424;SDS011;10873;51.132;16.848;2023-05-21T03:42:58;10.02;;;8.73;;
21424;SDS011;10873;51.132;16.848;2023-05-21T03:45:24;10.35;;;8.75;;
21424;SDS011;10873;51.132;16.848;2023-05-21T03:47:50;11.65;;;8.85;;
21424;SDS011;10873;51.132;16.848;2023-05-21T03:50:16;10.02;;;8.90;;
21424;SDS011;10873;51.132;16.848;2023-05-21T03:52:42;13.40;;;8.95;;
21424;SDS011;10873;51.132;16.848;2023-05-21T03:55:10;10.18;;;8.27;;
21424;SDS011;10873;51.132;16.848;2023-05-21T03:57:36;9.95;;;8.20;;
21424;SDS011;10873;51.132;16.848;2023-05-21T04:00:02;10.90;;;8.82;;
21424;SDS011;10873;51.132;16.848;2023-05-21T04:02:30;10.25;;;9.02;;
21424;SDS011;10873;51.132;16.848;2023-05-21T04:04:56;9.90;;;8.55;;
21424;SDS011;10873;51.132;16.848;2023-05-21T04:07:22;12.30;;;8.05;;
21424;SDS011;10873;51.132;16.848;2023-05-21T04:09:48;10.07;;;8.10;;
21424;SDS011;10873;51.132;16.848;2023-05-21T04:12:16;9.13;;;8.20;;
21424;SDS011;10873;51.132;16.848;2023-05-21T04:14:44;11.60;;;8.60;;
21424;SDS011;10873;51.132;16.848;2023-05-21T04:17:10;9.65;;;8.18;;
21424;SDS011;10873;51.132;16.848;2023-05-21T04:19:39;10.25;;;8.80;;
21424;SDS011;10873;51.132;16.848;2023-05-21T04:22:06;10.40;;;8.35;;
21424;SDS011;10873;51.132;16.848;2023-05-21T04:24:34;10.25;;;8.40;;
21424;SDS011;10873;51.132;16.848;2023-05-21T04:27:03;9.88;;;8.68;;
21424;SDS011;10873;51.132;16.848;2023-05-21T04:29:31;10.75;;;8.27;;
21424;SDS011;10873;51.132;16.848;2023-05-21T04:31:57;10.75;;;8.55;;
21424;SDS011;10873;51.132;16.848;2023-05-21T04:34:23;11.23;;;8.50;;
21424;SDS011;10873;51.132;16.848;2023-05-21T04:36:49;9.25;;;8.32;;
21424;SDS011;10873;51.132;16.848;2023-05-21T04:39:16;9.02;;;8.13;;
21424;SDS011;10873;51.132;16.848;2023-05-21T04:41:46;9.10;;;7.93;;
21424;SDS011;10873;51.132;16.848;2023-05-21T04:44:14;9.80;;;8.63;;
21424;SDS011;10873;51.132;16.848;2023-05-21T04:46:42;9.68;;;8.68;;
21424;SDS011;10873;51.132;16.848;2023-05-21T04:49:10;9.70;;;8.23;;
21424;SDS011;10873;51.132;16.848;2023-05-21T04:51:36;11.85;;;8.57;;
21424;SDS011;10873;51.132;16.848;2023-05-21T04:54:02;10.63;;;8.57;;
21424;SDS011;10873;51.132;16.848;2023-05-21T04:56:28;9.20;;;7.60;;
21424;SDS011;10873;51.132;16.848;2023-05-21T04:58:54;9.23;;;8.25;;
21424;SDS011;10873;51.132;16.848;2023-05-21T05:01:20;9.65;;;8.02;;
21424;SDS011;10873;51.132;16.848;2023-05-21T05:03:54;9.90;;;8.90;;
21424;SDS011;10873;51.132;16.848;2023-05-21T05:06:20;10.20;;;8.40;;
21424;SDS011;10873;51.132;16.848;2023-05-21T05:08:47;9.05;;;7.85;;
21424;SDS011;10873;51.132;16.848;2023-05-21T05:11:13;11.40;;;7.97;;
21424;SDS011;10873;51.132;16.848;2023-05-21T05:13:42;10.57;;;8.13;;
21424;SDS011;10873;51.132;16.848;2023-05-21T05:16:11;10.20;;;8.18;;
21424;SDS011;10873;51.132;16.848;2023-05-21T05:18:38;11.82;;;8.82;;
21424;SDS011;10873;51.132;16.848;2023-05-21T05:21:06;8.50;;;7.70;;
21424;SDS011;10873;51.132;16.848;2023-05-21T05:23:32;10.38;;;8.15;;
21424;SDS011;10873;51.132;16.848;2023-05-21T05:25:58;10.48;;;7.93;;
21424;SDS011;10873;51.132;16.848;2023-05-21T05:28:24;9.15;;;7.60;;
21424;SDS011;10873;51.132;16.848;2023-05-21T05:30:50;10.13;;;7.93;;
21424;SDS011;10873;51.132;16.848;2023-05-21T05:33:17;9.90;;;8.13;;
21424;SDS011;10873;51.132;16.848;2023-05-21T05:35:43;9.40;;;8.20;;
21424;SDS011;10873;51.132;16.848;2023-05-21T05:38:10;9.48;;;7.93;;
21424;SDS011;10873;51.132;16.848;2023-05-21T05:40:37;8.57;;;7.43;;
21424;SDS011;10873;51.132;16.848;2023-05-21T05:43:03;8.13;;;7.20;;
21424;SDS011;10873;51.132;16.848;2023-05-21T05:45:30;9.52;;;7.95;;
21424;SDS011;10873;51.132;16.848;2023-05-21T05:47:55;10.13;;;7.82;;
21424;SDS011;10873;51.132;16.848;2023-05-21T05:50:21;9.85;;;7.82;;
21424;SDS011;10873;51.132;16.848;2023-05-21T05:52:47;8.95;;;7.53;;
21424;SDS011;10873;51.132;16.848;2023-05-21T05:55:15;8.70;;;7.25;;
21424;SDS011;10873;51.132;16.848;2023-05-21T05:57:41;7.82;;;7.03;;
21424;SDS011;10873;51.132;16.848;2023-05-21T06:00:08;8.07;;;7.07;;
21424;SDS011;10873;51.132;16.848;2023-05-21T06:02:35;7.90;;;7.10;;
21424;SDS011;10873;51.132;16.848;2023-05-21T06:05:01;8.00;;;7.05;;
21424;SDS011;10873;51.132;16.848;2023-05-21T06:07:28;8.02;;;7.22;;
21424;SDS011;10873;51.132;16.848;2023-05-21T06:09:54;8.43;;;6.72;;
21424;SDS011;10873;51.132;16.848;2023-05-21T06:12:21;7.85;;;7.03;;
21424;SDS011;10873;51.132;16.848;2023-05-21T06:14:47;9.80;;;6.95;;
21424;SDS011;10873;51.132;16.848;2023-05-21T06:17:15;7.38;;;6.40;;
21424;SDS011;10873;51.132;16.848;2023-05-21T06:19:41;8.88;;;6.68;;
21424;SDS011;10873;51.132;16.848;2023-05-21T06:22:09;9.38;;;6.75;;
21424;SDS011;10873;51.132;16.848;2023-05-21T06:24:35;6.93;;;6.22;;
21424;SDS011;10873;51.132;16.848;2023-05-21T06:27:01;10.13;;;6.47;;
21424;SDS011;10873;51.132;16.848;2023-05-21T06:29:29;9.07;;;6.72;;
21424;SDS011;10873;51.132;16.848;2023-05-21T06:31:56;10.32;;;6.65;;
21424;SDS011;10873;51.132;16.848;2023-05-21T06:34:22;8.85;;;6.85;;
21424;SDS011;10873;51.132;16.848;2023-05-21T06:36:48;8.23;;;6.60;;
21424;SDS011;10873;51.132;16.848;2023-05-21T06:39:15;7.53;;;6.55;;
21424;SDS011;10873;51.132;16.848;2023-05-21T06:41:41;10.40;;;6.65;;
21424;SDS011;10873;51.132;16.848;2023-05-21T06:44:07;7.97;;;6.63;;
21424;SDS011;10873;51.132;16.848;2023-05-21T06:46:35;6.97;;;6.28;;
21424;SDS011;10873;51.132;16.848;2023-05-21T06:49:01;9.40;;;6.90;;
21424;SDS011;10873;51.132;16.848;2023-05-21T06:51:27;16.77;;;7.55;;
21424;SDS011;10873;51.132;16.848;2023-05-21T06:53:53;23.02;;;8.07;;
21424;SDS011;10873;51.132;16.848;2023-05-21T06:56:19;19.92;;;7.78;;
21424;SDS011;10873;51.132;16.848;2023-05-21T06:58:46;12.05;;;7.30;;
21424;SDS011;10873;51.132;16.848;2023-05-21T07:01:12;16.30;;;7.68;;
21424;SDS011;10873;51.132;16.848;2023-05-21T07:03:39;10.38;;;7.47;;
21424;SDS011;10873;51.132;16.848;2023-05-21T07:06:05;11.52;;;7.78;;
21424;SDS011;10873;51.132;16.848;2023-05-21T07:08:32;14.52;;;7.80;;
21424;SDS011;10873;51.132;16.848;2023-05-21T07:10:58;15.43;;;7.65;;
21424;SDS011;10873;51.132;16.848;2023-05-21T07:13:24;11.00;;;7.68;;
21424;SDS011;10873;51.132;16.848;2023-05-21T07:15:50;16.17;;;7.65;;
21424;SDS011;10873;51.132;16.848;2023-05-21T07:18:16;13.38;;;8.02;;
21424;SDS011;10873;51.132;16.848;2023-05-21T07:20:44;11.93;;;8.13;;
21424;SDS011;10873;51.132;16.848;2023-05-21T07:23:10;12.57;;;8.40;;
21424;SDS011;10873;51.132;16.848;2023-05-21T07:25:36;14.88;;;8.40;;
21424;SDS011;10873;51.132;16.848;2023-05-21T07:28:02;14.75;;;8.18;;
21424;SDS011;10873;51.132;16.848;2023-05-21T07:30:28;13.48;;;8.25;;
21424;SDS011;10873;51.132;16.848;2023-05-21T07:32:55;15.35;;;8.85;;
21424;SDS011;10873;51.132;16.848;2023-05-21T07:35:21;15.65;;;9.10;;
21424;SDS011;10873;51.132;16.848;2023-05-21T07:37:48;11.13;;;7.18;;
21424;SDS011;10873;51.132;16.848;2023-05-21T07:40:14;13.32;;;7.85;;
21424;SDS011;10873;51.132;16.848;2023-05-21T07:42:41;11.43;;;8.50;;
21424;SDS011;10873;51.132;16.848;2023-05-21T07:45:07;23.70;;;8.35;;
21424;SDS011;10873;51.132;16.848;2023-05-21T07:47:34;12.10;;;7.47;;
21424;SDS011;10873;51.132;16.848;2023-05-21T07:50:00;10.75;;;7.47;;
21424;SDS011;10873;51.132;16.848;2023-05-21T07:52:26;11.73;;;7.95;;
21424;SDS011;10873;51.132;16.848;2023-05-21T07:54:54;10.27;;;7.20;;
21424;SDS011;10873;51.132;16.848;2023-05-21T07:57:20;13.25;;;7.25;;
21424;SDS011;10873;51.132;16.848;2023-05-21T07:59:45;20.75;;;7.70;;
21424;SDS011;10873;51.132;16.848;2023-05-21T08:02:12;9.20;;;7.07;;
21424;SDS011;10873;51.132;16.848;2023-05-21T08:04:37;10.65;;;7.28;;
21424;SDS011;10873;51.132;16.848;2023-05-21T08:07:04;16.30;;;7.65;;
21424;SDS011;10873;51.132;16.848;2023-05-21T08:09:30;11.02;;;7.47;;
21424;SDS011;10873;51.132;16.848;2023-05-21T08:11:58;13.32;;;7.95;;
21424;SDS011;10873;51.132;16.848;2023-05-21T08:14:24;12.95;;;7.10;;
21424;SDS011;10873;51.132;16.848;2023-05-21T08:16:51;9.15;;;7.00;;
21424;SDS011;10873;51.132;16.848;2023-05-21T08:19:17;10.20;;;7.20;;
21424;SDS011;10873;51.132;16.848;2023-05-21T08:21:43;13.75;;;7.32;;
21424;SDS011;10873;51.132;16.848;2023-05-21T08:24:09;12.73;;;7.13;;
21424;SDS011;10873;51.132;16.848;2023-05-21T08:26:35;10.05;;;7.60;;
21424;SDS011;10873;51.132;16.848;2023-05-21T08:29:02;11.75;;;7.45;;
21424;SDS011;10873;51.132;16.848;2023-05-21T08:31:29;12.77;;;7.18;;
21424;SDS011;10873;51.132;16.848;2023-05-21T08:33:55;11.27;;;6.65;;
21424;SDS011;10873;51.132;16.848;2023-05-21T08:36:21;9.20;;;6.85;;
21424;SDS011;10873;51.132;16.848;2023-05-21T08:38:47;8.13;;;6.47;;
21424;SDS011;10873;51.132;16.848;2023-05-21T08:41:13;36.05;;;8.07;;
21424;SDS011;10873;51.132;16.848;2023-05-21T08:43:42;16.13;;;6.72;;
21424;SDS011;10873;51.132;16.848;2023-05-21T08:46:13;16.23;;;6.75;;
21424;SDS011;10873;51.132;16.848;2023-05-21T08:48:42;12.50;;;7.00;;
21424;SDS011;10873;51.132;16.848;2023-05-21T08:51:09;10.65;;;6.65;;
21424;SDS011;10873;51.132;16.848;2023-05-21T08:53:35;9.77;;;6.72;;
21424;SDS011;10873;51.132;16.848;2023-05-21T08:56:02;13.05;;;7.20;;
21424;SDS011;10873;51.132;16.848;2023-05-21T08:58:28;7.03;;;6.25;;
21424;SDS011;10873;51.132;16.848;2023-05-21T09:00:58;18.80;;;7.28;;
21424;SDS011;10873;51.132;16.848;2023-05-21T09:03:25;11.93;;;7.00;;
21424;SDS011;10873;51.132;16.848;2023-05-21T09:05:53;10.60;;;6.47;;
21424;SDS011;10873;51.132;16.848;2023-05-21T09:08:20;9.68;;;6.80;;
21424;SDS011;10873;51.132;16.848;2023-05-21T09:10:51;9.50;;;6.80;;
21424;SDS011;10873;51.132;16.848;2023-05-21T09:13:17;9.73;;;7.00;;
21424;SDS011;10873;51.132;16.848;2023-05-21T09:15:45;8.80;;;6.50;;
21424;SDS011;10873;51.132;16.848;2023-05-21T09:18:12;10.55;;;6.65;;
21424;SDS011;10873;51.132;16.848;2023-05-21T09:20:40;11.32;;;6.90;;
21424;SDS011;10873;51.132;16.848;2023-05-21T09:23:06;9.27;;;6.38;;
21424;SDS011;10873;51.132;16.848;2023-05-21T09:25:43;10.30;;;7.05;;
21424;SDS011;10873;51.132;16.848;2023-05-21T09:28:11;14.32;;;6.50;;
21424;SDS011;10873;51.132;16.848;2023-05-21T09:30:42;8.48;;;6.72;;
21424;SDS011;10873;51.132;16.848;2023-05-21T09:33:09;7.95;;;5.80;;
21424;SDS011;10873;51.132;16.848;2023-05-21T09:35:36;10.25;;;6.30;;
21424;SDS011;10873;51.132;16.848;2023-05-21T09:38:03;7.53;;;6.10;;
21424;SDS011;10873;51.132;16.848;2023-05-21T09:40:33;8.82;;;6.15;;
21424;SDS011;10873;51.132;16.848;2023-05-21T09:42:59;9.90;;;6.22;;
21424;SDS011;10873;51.132;16.848;2023-05-21T09:45:26;10.38;;;6.10;;
21424;SDS011;10873;51.132;16.848;2023-05-21T09:47:53;7.72;;;6.03;;
21424;SDS011;10873;51.132;16.848;2023-05-21T09:50:21;6.82;;;5.65;;
21424;SDS011;10873;51.132;16.848;2023-05-21T09:52:47;9.02;;;5.40;;
21424;SDS011;10873;51.132;16.848;2023-05-21T09:55:21;8.25;;;5.63;;
21424;SDS011;10873;51.132;16.848;2023-05-21T09:57:47;12.02;;;6.22;;
21424;SDS011;10873;51.132;16.848;2023-05-21T10:00:17;6.72;;;5.95;;
21424;SDS011;10873;51.132;16.848;2023-05-21T10:02:44;6.70;;;5.47;;
21424;SDS011;10873;51.132;16.848;2023-05-21T10:05:12;8.05;;;5.65;;
21424;SDS011;10873;51.132;16.848;2023-05-21T10:07:40;6.63;;;5.50;;
21424;SDS011;10873;51.132;16.848;2023-05-21T10:10:07;11.20;;;5.50;;
21424;SDS011;10873;51.132;16.848;2023-05-21T10:12:37;7.18;;;5.57;;
21424;SDS011;10873;51.132;16.848;2023-05-21T10:15:06;7.55;;;5.68;;
21424;SDS011;10873;51.132;16.848;2023-05-21T10:17:37;7.05;;;5.55;;
21424;SDS011;10873;51.132;16.848;2023-05-21T10:20:06;9.95;;;5.78;;
21424;SDS011;10873;51.132;16.848;2023-05-21T10:22:34;9.15;;;5.53;;
21424;SDS011;10873;51.132;16.848;2023-05-21T10:25:02;11.55;;;5.43;;
21424;SDS011;10873;51.132;16.848;2023-05-21T10:27:29;8.15;;;5.28;;
21424;SDS011;10873;51.132;16.848;2023-05-21T10:29:58;8.27;;;5.45;;
21424;SDS011;10873;51.132;16.848;2023-05-21T10:32:24;8.07;;;5.10;;
21424;SDS011;10873;51.132;16.848;2023-05-21T10:34:51;5.88;;;4.72;;
21424;SDS011;10873;51.132;16.848;2023-05-21T10:37:18;5.97;;;5.07;;
21424;SDS011;10873;51.132;16.848;2023-05-21T10:39:47;7.82;;;5.18;;
21424;SDS011;10873;51.132;16.848;2023-05-21T10:42:17;6.60;;;5.32;;
21424;SDS011;10873;51.132;16.848;2023-05-21T10:44:53;8.80;;;5.05;;
21424;SDS011;10873;51.132;16.848;2023-05-21T10:47:35;7.90;;;5.00;;
21424;SDS011;10873;51.132;16.848;2023-05-21T10:50:19;8.68;;;5.05;;
21424;SDS011;10873;51.132;16.848;2023-05-21T10:53:06;7.47;;;4.70;;
21424;SDS011;10873;51.132;16.848;2023-05-21T10:55:46;8.82;;;4.93;;
21424;SDS011;10873;51.132;16.848;2023-05-21T10:58:33;6.88;;;4.63;;
21424;SDS011;10873;51.132;16.848;2023-05-21T11:01:21;7.25;;;4.72;;
21424;SDS011;10873;51.132;16.848;2023-05-21T11:03:47;7.10;;;4.43;;
21424;SDS011;10873;51.132;16.848;2023-05-21T11:06:21;6.22;;;4.18;;
21424;SDS011;10873;51.132;16.848;2023-05-21T11:08:47;11.32;;;4.63;;
21424;SDS011;10873;51.132;16.848;2023-05-21T11:11:20;9.25;;;4.72;;
21424;SDS011;10873;51.132;16.848;2023-05-21T11:16:57;6.95;;;4.53;;
21424;SDS011;10873;51.132;16.848;2023-05-21T11:19:31;6.05;;;5.10;;
21424;SDS011;10873;51.132;16.848;2023-05-21T11:22:04;12.15;;;6.68;;
21424;SDS011;10873;51.132;16.848;2023-05-21T11:24:35;12.70;;;6.55;;
21424;SDS011;10873;51.132;16.848;2023-05-21T11:27:04;17.33;;;7.30;;
21424;SDS011;10873;51.132;16.848;2023-05-21T11:29:31;14.15;;;7.80;;
21424;SDS011;10873;51.132;16.848;2023-05-21T11:32:06;11.68;;;7.50;;
21424;SDS011;10873;51.132;16.848;2023-05-21T11:34:36;16.35;;;7.88;;
21424;SDS011;10873;51.132;16.848;2023-05-21T11:39:55;17.48;;;7.22;;
21424;SDS011;10873;51.132;16.848;2023-05-21T11:42:27;17.05;;;7.43;;
21424;SDS011;10873;51.132;16.848;2023-05-21T11:44:55;13.27;;;7.20;;
21424;SDS011;10873;51.132;16.848;2023-05-21T11:47:26;13.27;;;6.25;;
21424;SDS011;10873;51.132;16.848;2023-05-21T11:49:53;10.98;;;6.30;;
21424;SDS011;10873;51.132;16.848;2023-05-21T11:52:21;13.00;;;6.50;;
21424;SDS011;10873;51.132;16.848;2023-05-21T11:54:48;11.30;;;6.30;;
21424;SDS011;10873;51.132;16.848;2023-05-21T11:57:20;12.55;;;6.32;;
21424;SDS011;10873;51.132;16.848;2023-05-21T11:59:47;11.38;;;5.80;;
21424;SDS011;10873;51.132;16.848;2023-05-21T12:02:16;9.45;;;6.07;;
21424;SDS011;10873;51.132;16.848;2023-05-21T12:04:45;9.45;;;5.30;;
21424;SDS011;10873;51.132;16.848;2023-05-21T12:07:13;10.85;;;6.32;;
21424;SDS011;10873;51.132;16.848;2023-05-21T12:09:41;14.15;;;5.57;;
21424;SDS011;10873;51.132;16.848;2023-05-21T12:12:08;6.82;;;5.25;;
21424;SDS011;10873;51.132;16.848;2023-05-21T12:14:35;10.98;;;4.93;;
21424;SDS011;10873;51.132;16.848;2023-05-21T12:17:02;9.35;;;4.93;;
21424;SDS011;10873;51.132;16.848;2023-05-21T12:19:30;6.50;;;4.38;;
21424;SDS011;10873;51.132;16.848;2023-05-21T12:22:00;8.43;;;4.53;;
21424;SDS011;10873;51.132;16.848;2023-05-21T12:24:26;9.23;;;4.57;;
21424;SDS011;10873;51.132;16.848;2023-05-21T12:26:52;8.02;;;4.30;;
21424;SDS011;10873;51.132;16.848;2023-05-21T12:29:19;5.72;;;4.28;;
21424;SDS011;10873;51.132;16.848;2023-05-21T12:31:47;5.20;;;4.20;;
21424;SDS011;10873;51.132;16.848;2023-05-21T12:34:14;7.30;;;4.43;;
21424;SDS011;10873;51.132;16.848;2023-05-21T12:36:43;7.68;;;4.30;;
21424;SDS011;10873;51.132;16.848;2023-05-21T12:39:18;6.40;;;3.95;;
21424;SDS011;10873;51.132;16.848;2023-05-21T12:41:44;6.25;;;4.38;;
21424;SDS011;10873;51.132;16.848;2023-05-21T12:44:10;9.00;;;4.70;;
21424;SDS011;10873;51.132;16.848;2023-05-21T12:46:36;5.95;;;3.83;;
21424;SDS011;10873;51.132;16.848;2023-05-21T12:49:02;5.90;;;3.97;;
21424;SDS011;10873;51.132;16.848;2023-05-21T12:51:36;9.05;;;4.47;;
21424;SDS011;10873;51.132;16.848;2023-05-21T12:54:03;4.78;;;3.95;;
21424;SDS011;10873;51.132;16.848;2023-05-21T12:56:30;6.32;;;3.58;;
21424;SDS011;10873;51.132;16.848;2023-05-21T12:59:11;7.15;;;4.18;;
21424;SDS011;10873;51.132;16.848;2023-05-21T13:01:38;5.43;;;3.85;;
21424;SDS011;10873;51.132;16.848;2023-05-21T13:04:04;5.22;;;3.78;;
21424;SDS011;10873;51.132;16.848;2023-05-21T13:06:40;6.50;;;3.97;;
21424;SDS011;10873;51.132;16.848;2023-05-21T13:09:06;6.30;;;4.15;;
21424;SDS011;10873;51.132;16.848;2023-05-21T13:11:34;6.85;;;4.10;;
21424;SDS011;10873;51.132;16.848;2023-05-21T13:13:59;4.22;;;3.63;;
21424;SDS011;10873;51.132;16.848;2023-05-21T13:16:26;9.45;;;3.90;;
21424;SDS011;10873;51.132;16.848;2023-05-21T13:18:52;4.70;;;3.83;;
21424;SDS011;10873;51.132;16.848;2023-05-21T13:21:18;6.55;;;3.70;;
21424;SDS011;10873;51.132;16.848;2023-05-21T13:23:44;5.78;;;3.55;;
21424;SDS011;10873;51.132;16.848;2023-05-21T13:26:10;5.65;;;3.92;;
21424;SDS011;10873;51.132;16.848;2023-05-21T13:28:37;5.05;;;3.67;;
21424;SDS011;10873;51.132;16.848;2023-05-21T13:31:04;5.65;;;3.85;;
21424;SDS011;10873;51.132;16.848;2023-05-21T13:33:30;5.93;;;3.88;;
21424;SDS011;10873;51.132;16.848;2023-05-21T13:35:56;5.38;;;3.55;;
21424;SDS011;10873;51.132;16.848;2023-05-21T13:38:22;7.53;;;3.75;;
21424;SDS011;10873;51.132;16.848;2023-05-21T13:40:48;6.38;;;3.83;;
21424;SDS011;10873;51.132;16.848;2023-05-21T13:43:14;4.80;;;3.70;;
21424;SDS011;10873;51.132;16.848;2023-05-21T13:45:42;7.70;;;3.97;;
21424;SDS011;10873;51.132;16.848;2023-05-21T13:48:08;4.20;;;3.67;;
21424;SDS011;10873;51.132;16.848;2023-05-21T13:50:35;5.15;;;3.63;;
21424;SDS011;10873;51.132;16.848;2023-05-21T13:53:02;4.82;;;3.65;;
21424;SDS011;10873;51.132;16.848;2023-05-21T13:55:28;5.72;;;3.63;;
21424;SDS011;10873;51.132;16.848;2023-05-21T13:57:54;6.47;;;3.60;;
21424;SDS011;10873;51.132;16.848;2023-05-21T14:00:20;6.63;;;3.85;;
21424;SDS011;10873;51.132;16.848;2023-05-21T14:02:48;5.43;;;3.72;;
21424;SDS011;10873;51.132;16.848;2023-05-21T14:05:14;8.43;;;4.07;;
21424;SDS011;10873;51.132;16.848;2023-05-21T14:07:40;6.45;;;3.97;;
21424;SDS011;10873;51.132;16.848;2023-05-21T14:10:07;6.50;;;4.47;;
21424;SDS011;10873;51.132;16.848;2023-05-21T14:12:33;6.88;;;4.18;;
21424;SDS011;10873;51.132;16.848;2023-05-21T14:14:59;6.28;;;3.85;;
21424;SDS011;10873;51.132;16.848;2023-05-21T14:17:25;9.48;;;4.05;;
21424;SDS011;10873;51.132;16.848;2023-05-21T14:19:53;5.35;;;3.72;;
21424;SDS011;10873;51.132;16.848;2023-05-21T14:22:19;5.13;;;3.63;;
21424;SDS011;10873;51.132;16.848;2023-05-21T14:24:46;6.22;;;3.95;;
21424;SDS011;10873;51.132;16.848;2023-05-21T14:27:11;7.15;;;3.65;;
21424;SDS011;10873;51.132;16.848;2023-05-21T14:29:38;5.63;;;3.60;;
21424;SDS011;10873;51.132;16.848;2023-05-21T14:32:04;6.35;;;3.65;;
21424;SDS011;10873;51.132;16.848;2023-05-21T14:34:31;5.65;;;3.42;;